Time;durP1;ratioP1;P1;durP2;ratioP2;P2;SDS_P1;SDS_P2;PMS_P1;PMS_P2;Temp;Humidity;BMP_temperature;BMP_pressure;BME280_temperature;BME280_humidity;BME280_pressure;Samples;Min_cycle;Max_cycle;Signal;HPM_P1;HPM_P2
2022/08/10 00:01:15;;;;;;;6.53;3.70;;;;;;;;;;6127343;23;20281;-88
2022/08/10 00:04:23;;;;;;;7.40;2.90;;;;;;;;;;6131145;23;20169;-90
2022/08/10 00:07:29;;;;;;;6.05;2.92;;;;;;;;;;6128229;23;20247;-89
2022/08/10 00:10:34;;;;;;;9.43;3.42;;;;;;;;;;6126445;23;20173;-88
2022/08/10 00:13:39;;;;;;;6.05;2.92;;;;;;;;;;6126318;23;20178;-89
2022/08/10 00:16:45;;;;;;;4.80;2.92;;;;;;;;;;6127641;23;20662;-89
2022/08/10 00:19:52;;;;;;;4.97;2.92;;;;;;;;;;6127776;23;20242;-91
2022/08/10 00:22:58;;;;;;;5.10;2.90;;;;;;;;;;6127609;23;20501;-92
2022/08/10 00:26:03;;;;;;;4.57;3.08;;;;;;;;;;6127708;23;20174;-89
2022/08/10 00:29:09;;;;;;;5.93;3.17;;;;;;;;;;6128148;23;20161;-89
2022/08/10 00:32:14;;;;;;;3.67;2.60;;;;;;;;;;6127350;23;20172;-91
2022/08/10 00:35:21;;;;;;;4.75;2.90;;;;;;;;;;6126766;23;20217;-90
2022/08/10 00:38:26;;;;;;;5.75;2.90;;;;;;;;;;6126377;23;20173;-90
2022/08/10 00:41:31;;;;;;;7.35;3.25;;;;;;;;;;6128072;23;20209;-90
2022/08/10 00:44:39;;;;;;;7.20;3.20;;;;;;;;;;6125967;23;20173;-90
2022/08/10 00:47:45;;;;;;;5.15;3.10;;;;;;;;;;6127176;23;20164;-90
2022/08/10 00:50:53;;;;;;;6.82;3.28;;;;;;;;;;6127986;23;20693;-89
2022/08/10 00:53:58;;;;;;;5.55;3.00;;;;;;;;;;6126344;23;20306;-89
2022/08/10 00:57:04;;;;;;;5.50;3.30;;;;;;;;;;6127359;23;20177;-91
2022/08/10 01:00:11;;;;;;;7.68;3.15;;;;;;;;;;6126287;23;20268;-89
2022/08/10 01:03:17;;;;;;;5.68;3.00;;;;;;;;;;6127881;23;20161;-90
2022/08/10 01:06:30;;;;;;;8.05;3.22;;;;;;;;;;6126558;23;20214;-88
2022/08/10 01:09:41;;;;;;;10.35;3.38;;;;;;;;;;6126112;23;20169;-89
2022/08/10 01:12:49;;;;;;;4.45;3.03;;;;;;;;;;6127249;23;20222;-91
2022/08/10 01:15:57;;;;;;;8.82;2.85;;;;;;;;;;6126203;23;20244;-87
2022/08/10 01:19:11;;;;;;;4.78;3.05;;;;;;;;;;6128177;23;20176;-89
2022/08/10 01:22:28;;;;;;;5.53;3.20;;;;;;;;;;6125115;23;20176;-89
2022/08/10 01:25:50;;;;;;;5.00;3.00;;;;;;;;;;6124386;23;20169;-89
2022/08/10 01:29:04;;;;;;;9.30;3.10;;;;;;;;;;6124748;23;20165;-89
2022/08/10 01:32:14;;;;;;;6.07;3.38;;;;;;;;;;6124670;23;20170;-89
2022/08/10 01:35:25;;;;;;;6.60;3.10;;;;;;;;;;6124995;23;20241;-88
2022/08/10 01:38:33;;;;;;;7.07;2.95;;;;;;;;;;6126647;23;20170;-90
2022/08/10 01:41:40;;;;;;;6.95;2.80;;;;;;;;;;6124614;23;20217;-90
2022/08/10 01:45:07;;;;;;;7.45;3.45;;;;;;;;;;6123605;23;20210;-89
2022/08/10 01:48:29;;;;;;;4.68;2.90;;;;;;;;;;6125667;23;20225;-90
2022/08/10 01:51:36;;;;;;;6.10;3.03;;;;;;;;;;6125995;23;20173;-88
2022/08/10 01:54:42;;;;;;;6.82;3.13;;;;;;;;;;6125240;23;20184;-91
2022/08/10 01:57:48;;;;;;;3.78;2.80;;;;;;;;;;6124477;23;20168;-90
2022/08/10 02:00:53;;;;;;;6.60;3.20;;;;;;;;;;6123218;23;20184;-89
2022/08/10 02:04:03;;;;;;;3.47;2.92;;;;;;;;;;6124590;23;20173;-89
2022/08/10 02:07:10;;;;;;;5.80;3.25;;;;;;;;;;6123359;23;20249;-89
2022/08/10 02:10:18;;;;;;;5.85;3.20;;;;;;;;;;6124600;23;20174;-90
2022/08/10 02:13:25;;;;;;;3.95;3.10;;;;;;;;;;6127282;23;20197;-90
2022/08/10 02:16:31;;;;;;;4.93;2.90;;;;;;;;;;6126107;23;20150;-91
2022/08/10 02:19:42;;;;;;;3.67;3.10;;;;;;;;;;6125908;23;20222;-89
2022/08/10 02:22:49;;;;;;;5.93;3.03;;;;;;;;;;6124613;23;20688;-89
2022/08/10 02:25:56;;;;;;;5.93;3.30;;;;;;;;;;6126421;23;20164;-89
2022/08/10 02:29:02;;;;;;;6.05;3.20;;;;;;;;;;6125572;23;20205;-90
2022/08/10 02:32:08;;;;;;;5.03;3.05;;;;;;;;;;6124545;23;20157;-89
2022/08/10 02:35:15;;;;;;;4.75;2.95;;;;;;;;;;6122122;23;20169;-90
2022/08/10 02:38:23;;;;;;;9.32;3.22;;;;;;;;;;6123446;23;20172;-89
2022/08/10 02:41:32;;;;;;;7.95;3.50;;;;;;;;;;6123928;23;20242;-90
2022/08/10 02:44:41;;;;;;;8.60;3.95;;;;;;;;;;6124732;23;20166;-89
2022/08/10 02:47:50;;;;;;;10.27;3.90;;;;;;;;;;6125034;23;20177;-89
2022/08/10 02:51:00;;;;;;;11.85;3.88;;;;;;;;;;6124787;23;20173;-90
2022/08/10 02:54:08;;;;;;;8.77;3.97;;;;;;;;;;6124168;23;20173;-89
2022/08/10 02:57:17;;;;;;;7.43;3.83;;;;;;;;;;6126640;23;20268;-90
2022/08/10 03:00:24;;;;;;;7.10;3.70;;;;;;;;;;6124816;23;20170;-91
2022/08/10 03:03:31;;;;;;;7.88;3.47;;;;;;;;;;6125033;23;20189;-90
2022/08/10 03:06:40;;;;;;;7.32;3.42;;;;;;;;;;6125662;23;20172;-90
2022/08/10 03:09:46;;;;;;;13.90;3.90;;;;;;;;;;6126053;23;20233;-89
2022/08/10 03:12:54;;;;;;;11.60;3.88;;;;;;;;;;6125511;23;20193;-89
2022/08/10 03:16:01;;;;;;;7.68;3.80;;;;;;;;;;6125969;23;20507;-89
2022/08/10 03:19:09;;;;;;;8.82;4.35;;;;;;;;;;6123845;23;20210;-89
2022/08/10 03:22:17;;;;;;;9.00;4.70;;;;;;;;;;6125415;23;20181;-90
2022/08/10 03:25:24;;;;;;;16.20;4.43;;;;;;;;;;6125899;23;20293;-88
2022/08/10 03:28:32;;;;;;;12.57;4.18;;;;;;;;;;6127250;23;20173;-89
2022/08/10 03:31:38;;;;;;;11.95;5.03;;;;;;;;;;6126228;23;20592;-89
2022/08/10 03:34:45;;;;;;;11.82;5.40;;;;;;;;;;6125315;23;20217;-89
2022/08/10 03:37:51;;;;;;;10.18;4.90;;;;;;;;;;6124765;23;20168;-89
2022/08/10 03:40:57;;;;;;;9.25;4.85;;;;;;;;;;6125999;23;20192;-89
2022/08/10 03:44:04;;;;;;;10.77;5.00;;;;;;;;;;6126257;23;20217;-90
2022/08/10 03:47:11;;;;;;;8.48;4.13;;;;;;;;;;6124632;23;20244;-88
2022/08/10 03:50:19;;;;;;;6.78;4.20;;;;;;;;;;6123680;23;20678;-89
2022/08/10 03:53:26;;;;;;;7.53;4.30;;;;;;;;;;6125391;23;20157;-90
2022/08/10 03:56:31;;;;;;;12.30;4.55;;;;;;;;;;6127263;23;20173;-89
2022/08/10 03:59:38;;;;;;;11.05;5.28;;;;;;;;;;6125191;23;20585;-91
2022/08/10 04:02:44;;;;;;;11.20;4.28;;;;;;;;;;6124773;23;20769;-89
2022/08/10 04:05:50;;;;;;;13.45;4.50;;;;;;;;;;6125427;23;20185;-89
2022/08/10 04:08:57;;;;;;;8.57;4.85;;;;;;;;;;6125375;23;20555;-92
2022/08/10 04:12:02;;;;;;;7.03;3.53;;;;;;;;;;6124989;23;20173;-88
2022/08/10 04:15:08;;;;;;;8.07;3.75;;;;;;;;;;6143482;23;20165;-89
2022/08/10 04:18:14;;;;;;;8.05;4.20;;;;;;;;;;6125706;23;20165;-90
2022/08/10 04:21:21;;;;;;;11.00;3.63;;;;;;;;;;6122430;23;20268;-91
2022/08/10 04:24:28;;;;;;;6.28;4.07;;;;;;;;;;6120927;23;20173;-89
2022/08/10 04:27:33;;;;;;;14.45;4.30;;;;;;;;;;6124381;23;20148;-90
2022/08/10 04:30:39;;;;;;;8.85;3.97;;;;;;;;;;6122114;23;20190;-90
2022/08/10 04:33:46;;;;;;;10.00;3.75;;;;;;;;;;6123810;23;20173;-90
2022/08/10 04:36:52;;;;;;;12.50;4.05;;;;;;;;;;6122912;23;20169;-90
2022/08/10 04:40:04;;;;;;;8.35;3.70;;;;;;;;;;6122130;23;20201;-89
2022/08/10 04:43:09;;;;;;;4.97;3.63;;;;;;;;;;6124676;23;20231;-89
2022/08/10 04:46:19;;;;;;;5.90;3.40;;;;;;;;;;6122497;23;20213;-89
2022/08/10 04:49:24;;;;;;;12.45;3.63;;;;;;;;;;6124664;23;20168;-91
2022/08/10 04:52:30;;;;;;;6.85;3.90;;;;;;;;;;6123399;23;20172;-89
2022/08/10 04:55:37;;;;;;;8.30;3.63;;;;;;;;;;6124607;23;20164;-89
2022/08/10 04:58:42;;;;;;;6.10;3.10;;;;;;;;;;6123159;23;20223;-90
2022/08/10 05:01:48;;;;;;;7.75;3.38;;;;;;;;;;6125374;23;20220;-90
2022/08/10 05:04:53;;;;;;;4.15;3.13;;;;;;;;;;6122910;23;20169;-89
2022/08/10 05:07:58;;;;;;;10.32;3.70;;;;;;;;;;6122219;23;20177;-89
2022/08/10 05:11:04;;;;;;;6.97;3.40;;;;;;;;;;6122269;23;20185;-89
2022/08/10 05:14:10;;;;;;;8.50;3.33;;;;;;;;;;6121775;23;20308;-89
2022/08/10 05:17:16;;;;;;;9.35;3.75;;;;;;;;;;6122307;23;20220;-90
2022/08/10 05:20:22;;;;;;;7.82;3.58;;;;;;;;;;6123878;23;20609;-88
2022/08/10 05:23:27;;;;;;;7.65;3.95;;;;;;;;;;6126412;23;20221;-88
2022/08/10 05:26:34;;;;;;;8.73;3.72;;;;;;;;;;6124185;23;20169;-88
2022/08/10 05:29:39;;;;;;;7.45;3.72;;;;;;;;;;6123106;23;20173;-90
2022/08/10 05:32:48;;;;;;;5.85;3.83;;;;;;;;;;6131602;23;20157;-90
2022/08/10 05:35:56;;;;;;;9.75;3.60;;;;;;;;;;6129227;23;20198;-91
2022/08/10 05:39:01;;;;;;;5.80;3.55;;;;;;;;;;6125194;23;20176;-90
2022/08/10 05:42:08;;;;;;;5.95;3.22;;;;;;;;;;6122252;23;20193;-88
2022/08/10 05:45:14;;;;;;;7.63;3.20;;;;;;;;;;6125864;23;20192;-90
2022/08/10 05:48:19;;;;;;;6.93;3.10;;;;;;;;;;6125658;23;20169;-89
2022/08/10 05:51:25;;;;;;;9.80;4.00;;;;;;;;;;6124990;23;20261;-90
2022/08/10 05:54:34;;;;;;;7.80;3.15;;;;;;;;;;6123731;23;20173;-89
2022/08/10 05:57:40;;;;;;;6.60;3.47;;;;;;;;;;6123412;23;20173;-91
2022/08/10 06:00:57;;;;;;;7.80;3.50;;;;;;;;;;6125110;23;20169;-92
2022/08/10 06:04:05;;;;;;;9.45;2.78;;;;;;;;;;6123733;23;20169;-89
2022/08/10 06:07:12;;;;;;;7.05;3.20;;;;;;;;;;6123708;23;20172;-89
2022/08/10 06:10:18;;;;;;;5.28;2.80;;;;;;;;;;6124974;23;20166;-88
2022/08/10 06:16:51;;;;;;;8.20;2.83;;;;;;;;;;6121238;23;20169;-89
2022/08/10 06:19:57;;;;;;;7.40;2.65;;;;;;;;;;6128596;23;20213;-89
2022/08/10 06:23:03;;;;;;;4.13;2.47;;;;;;;;;;6124338;23;20237;-90
2022/08/10 06:26:08;;;;;;;6.88;2.40;;;;;;;;;;6143999;23;20170;-91
2022/08/10 06:29:15;;;;;;;5.57;2.60;;;;;;;;;;6124909;23;20173;-92
2022/08/10 06:32:24;;;;;;;10.00;5.15;;;;;;;;;;6126599;23;20555;-90
2022/08/10 06:35:31;;;;;;;4.20;1.98;;;;;;;;;;6126452;23;20219;-91
2022/08/10 06:38:39;;;;;;;3.67;1.92;;;;;;;;;;6126756;23;20173;-91
2022/08/10 06:41:47;;;;;;;4.20;2.30;;;;;;;;;;6124592;23;20201;-91
2022/08/10 06:44:56;;;;;;;6.22;2.35;;;;;;;;;;6127617;23;20193;-91
2022/08/10 06:48:03;;;;;;;7.18;2.10;;;;;;;;;;6127896;23;20173;-92
2022/08/10 06:51:16;;;;;;;4.90;2.10;;;;;;;;;;6125050;23;20168;-90
2022/08/10 06:54:24;;;;;;;4.05;1.65;;;;;;;;;;6126129;23;20266;-91
2022/08/10 06:57:32;;;;;;;3.53;1.65;;;;;;;;;;6126200;23;20185;-90
2022/08/10 07:00:42;;;;;;;6.88;1.83;;;;;;;;;;6125767;23;20169;-91
2022/08/10 07:03:47;;;;;;;3.88;1.92;;;;;;;;;;6124343;23;20173;-90
2022/08/10 07:06:54;;;;;;;7.00;3.22;;;;;;;;;;6127115;23;20181;-90
2022/08/10 07:10:01;;;;;;;6.53;2.15;;;;;;;;;;6124831;23;20168;-90
2022/08/10 07:13:06;;;;;;;6.20;1.67;;;;;;;;;;6124531;23;20221;-90
2022/08/10 07:16:14;;;;;;;4.90;1.60;;;;;;;;;;6127041;23;20177;-90
2022/08/10 07:19:20;;;;;;;5.32;1.77;;;;;;;;;;6124482;23;20693;-91
2022/08/10 07:22:31;;;;;;;6.10;2.22;;;;;;;;;;6124399;23;20302;-92
2022/08/10 07:25:38;;;;;;;6.22;1.83;;;;;;;;;;6125580;23;20174;-91
2022/08/10 07:28:44;;;;;;;6.93;1.60;;;;;;;;;;6124670;23;20249;-91
2022/08/10 07:31:52;;;;;;;5.82;1.60;;;;;;;;;;6124928;23;20236;-90
2022/08/10 07:34:58;;;;;;;11.20;2.50;;;;;;;;;;6123878;23;20223;-90
2022/08/10 07:38:04;;;;;;;8.38;1.60;;;;;;;;;;6124357;23;20226;-91
2022/08/10 07:41:14;;;;;;;4.88;1.83;;;;;;;;;;6125971;23;20157;-91
2022/08/10 07:44:20;;;;;;;6.38;2.13;;;;;;;;;;6123550;23;20182;-90
2022/08/10 07:47:30;;;;;;;3.42;1.50;;;;;;;;;;6125708;23;20161;-89
2022/08/10 07:50:37;;;;;;;7.72;1.70;;;;;;;;;;6125183;23;20164;-91
2022/08/10 07:53:45;;;;;;;8.00;1.98;;;;;;;;;;6122475;23;20177;-91
2022/08/10 07:56:52;;;;;;;3.50;1.73;;;;;;;;;;6122999;23;20195;-91
2022/08/10 07:59:59;;;;;;;3.83;1.50;;;;;;;;;;6139790;23;20292;-89
2022/08/10 08:03:08;;;;;;;2.00;1.55;;;;;;;;;;6123133;23;20211;-89
2022/08/10 08:06:14;;;;;;;2.20;1.40;;;;;;;;;;6124554;23;20220;-90
2022/08/10 08:09:21;;;;;;;3.97;1.50;;;;;;;;;;6121938;23;20178;-90
2022/08/10 08:12:28;;;;;;;5.45;1.30;;;;;;;;;;6125024;23;20186;-91
2022/08/10 08:15:34;;;;;;;4.00;1.67;;;;;;;;;;6124034;23;20159;-92
2022/08/10 08:18:41;;;;;;;4.45;1.33;;;;;;;;;;6142316;23;20254;-89
2022/08/10 08:21:48;;;;;;;4.20;1.60;;;;;;;;;;6122490;23;20251;-90
2022/08/10 08:24:55;;;;;;;4.03;1.60;;;;;;;;;;6122507;23;20217;-88
2022/08/10 08:28:04;;;;;;;3.60;1.85;;;;;;;;;;6125339;23;20165;-87
2022/08/10 08:31:10;;;;;;;4.57;1.77;;;;;;;;;;6124324;23;20613;-88
2022/08/10 08:34:18;;;;;;;25.35;4.95;;;;;;;;;;6125735;23;20213;-90
2022/08/10 08:37:26;;;;;;;11.20;2.13;;;;;;;;;;6125739;23;20176;-89
2022/08/10 08:40:35;;;;;;;4.38;1.80;;;;;;;;;;6129394;23;20161;-89
2022/08/10 08:43:47;;;;;;;5.45;1.50;;;;;;;;;;6123591;23;20343;-90
2022/08/10 08:50:54;;;;;;;5.50;1.67;;;;;;;;;;6123631;23;20628;-90
2022/08/10 08:54:08;;;;;;;7.32;2.22;;;;;;;;;;6124883;23;20172;-90
2022/08/10 08:57:21;;;;;;;5.47;1.60;;;;;;;;;;6127347;23;20177;-89
2022/08/10 09:00:34;;;;;;;3.60;1.45;;;;;;;;;;6126600;23;20164;-90
2022/08/10 09:03:55;;;;;;;3.95;1.52;;;;;;;;;;6128958;23;20277;-90
2022/08/10 09:07:17;;;;;;;2.30;1.40;;;;;;;;;;6126864;23;20450;-90
2022/08/10 09:10:27;;;;;;;3.17;1.35;;;;;;;;;;6127213;23;20168;-89
2022/08/10 09:13:35;;;;;;;6.13;1.73;;;;;;;;;;6126599;23;20209;-90
2022/08/10 09:16:45;;;;;;;3.33;1.45;;;;;;;;;;6129904;23;20193;-92
2022/08/10 09:19:54;;;;;;;4.28;1.70;;;;;;;;;;6128996;23;20209;-90
2022/08/10 09:23:04;;;;;;;2.67;1.23;;;;;;;;;;6126430;23;20197;-90
2022/08/10 09:26:28;;;;;;;5.10;2.10;;;;;;;;;;6125792;23;20175;-89
2022/08/10 12:57:36;;;;;;;2.10;1.20;;;;;;;;;;6086142;23;20280;-91
2022/08/10 13:00:43;;;;;;;5.07;1.40;;;;;;;;;;6124672;23;20156;-90
2022/08/10 13:03:50;;;;;;;6.90;1.55;;;;;;;;;;6126088;23;20206;-90
2022/08/10 13:06:56;;;;;;;2.00;1.40;;;;;;;;;;6125434;23;20168;-90
2022/08/10 13:10:02;;;;;;;5.10;1.58;;;;;;;;;;6124063;23;20185;-90
2022/08/10 13:13:13;;;;;;;3.58;1.40;;;;;;;;;;6123751;23;20173;-89
2022/08/10 13:16:21;;;;;;;3.78;1.55;;;;;;;;;;6124360;23;20224;-90
2022/08/10 13:19:29;;;;;;;4.93;1.45;;;;;;;;;;6123973;23;20172;-90
2022/08/10 13:22:35;;;;;;;4.22;1.50;;;;;;;;;;6124194;23;20196;-90
2022/08/10 13:25:44;;;;;;;4.03;1.80;;;;;;;;;;6126971;23;20156;-89
2022/08/10 13:29:11;;;;;;;3.00;2.10;;;;;;;;;;6125853;23;20280;-90
2022/08/10 13:32:21;;;;;;;4.20;1.70;;;;;;;;;;6124676;23;20168;-91
2022/08/10 13:35:27;;;;;;;4.55;1.63;;;;;;;;;;6123996;23;20173;-89
2022/08/10 13:38:33;;;;;;;7.82;1.75;;;;;;;;;;6123918;23;20173;-91
2022/08/10 13:41:40;;;;;;;1.95;1.35;;;;;;;;;;6129484;23;20212;-91
2022/08/10 13:44:53;;;;;;;5.45;1.80;;;;;;;;;;6125019;23;20156;-90
2022/08/10 13:48:09;;;;;;;3.20;1.50;;;;;;;;;;6126199;23;20240;-89
2022/08/10 13:51:15;;;;;;;4.25;1.50;;;;;;;;;;6123970;23;20188;-89
2022/08/10 13:54:21;;;;;;;5.18;1.70;;;;;;;;;;6123222;23;20172;-90
2022/08/10 13:57:28;;;;;;;4.90;1.50;;;;;;;;;;6122529;23;20196;-89
2022/08/10 14:00:37;;;;;;;10.00;1.50;;;;;;;;;;6123538;23;20175;-90
2022/08/10 14:03:45;;;;;;;3.78;1.45;;;;;;;;;;6126263;23;20188;-89
2022/08/10 14:06:53;;;;;;;3.25;1.70;;;;;;;;;;6121762;23;20191;-90
2022/08/10 14:10:05;;;;;;;3.38;1.33;;;;;;;;;;6121438;23;20247;-90
2022/08/10 14:13:12;;;;;;;3.15;1.55;;;;;;;;;;6120590;23;20172;-90
2022/08/10 14:16:19;;;;;;;5.07;1.65;;;;;;;;;;6122230;23;20169;-90
2022/08/10 14:19:26;;;;;;;3.22;1.75;;;;;;;;;;6122882;23;20173;-90
2022/08/10 14:22:32;;;;;;;3.33;1.80;;;;;;;;;;6122176;23;20181;-89
2022/08/10 14:25:46;;;;;;;4.65;1.73;;;;;;;;;;6121530;23;20229;-90
2022/08/10 14:28:54;;;;;;;6.90;1.90;;;;;;;;;;6124436;23;20178;-89
2022/08/10 14:32:03;;;;;;;5.30;1.90;;;;;;;;;;6122452;23;20253;-89
2022/08/10 14:35:11;;;;;;;6.47;2.28;;;;;;;;;;6125431;23;20213;-90
2022/08/10 14:41:38;;;;;;;3.08;1.67;;;;;;;;;;6128992;23;20174;-89
2022/08/10 14:44:47;;;;;;;4.65;1.83;;;;;;;;;;6127342;23;20201;-89
2022/08/10 14:47:57;;;;;;;2.40;1.77;;;;;;;;;;6126517;23;20181;-90
2022/08/10 14:51:04;;;;;;;3.90;1.73;;;;;;;;;;6127182;23;20177;-90
2022/08/10 14:54:12;;;;;;;4.43;1.75;;;;;;;;;;6126956;23;20168;-89
2022/08/10 14:57:19;;;;;;;4.13;1.80;;;;;;;;;;6129061;23;20181;-89
2022/08/10 15:00:25;;;;;;;3.15;1.98;;;;;;;;;;6129245;23;20153;-91
2022/08/10 15:03:34;;;;;;;6.85;1.70;;;;;;;;;;6128026;23;20193;-91
2022/08/10 15:06:40;;;;;;;4.40;1.80;;;;;;;;;;6127119;23;20173;-91
2022/08/10 15:09:46;;;;;;;3.03;1.58;;;;;;;;;;6126356;23;20166;-91
2022/08/10 15:12:53;;;;;;;4.78;2.25;;;;;;;;;;6123539;23;20525;-91
2022/08/10 15:16:00;;;;;;;2.50;1.58;;;;;;;;;;6123635;23;20169;-90
2022/08/10 15:19:07;;;;;;;3.40;1.52;;;;;;;;;;6123630;23;20635;-91
2022/08/10 15:22:13;;;;;;;3.45;1.83;;;;;;;;;;6126243;23;20177;-89
2022/08/10 15:25:20;;;;;;;4.80;1.70;;;;;;;;;;6126135;23;20176;-88
2022/08/10 15:28:26;;;;;;;4.45;1.85;;;;;;;;;;6144683;23;20177;-90
2022/08/10 15:31:33;;;;;;;6.32;1.90;;;;;;;;;;6125475;23;20271;-89
2022/08/10 15:38:05;;;;;;;3.58;1.75;;;;;;;;;;6126725;23;20170;-89
2022/08/10 15:41:12;;;;;;;6.50;1.80;;;;;;;;;;6126017;23;20185;-90
2022/08/10 15:44:18;;;;;;;6.90;1.77;;;;;;;;;;6125970;23;20193;-90
2022/08/10 15:47:25;;;;;;;6.90;1.90;;;;;;;;;;6124908;23;20173;-91
2022/08/10 15:50:37;;;;;;;5.30;2.00;;;;;;;;;;6127283;23;20206;-89
2022/08/10 15:53:49;;;;;;;5.72;1.80;;;;;;;;;;6126749;23;20685;-89
2022/08/10 15:56:55;;;;;;;2.20;1.52;;;;;;;;;;6127915;23;20262;-88
2022/08/10 16:00:04;;;;;;;3.65;1.83;;;;;;;;;;6126431;23;20197;-90
2022/08/10 16:03:17;;;;;;;4.00;1.88;;;;;;;;;;6128038;23;20172;-89
2022/08/10 16:06:26;;;;;;;8.52;1.85;;;;;;;;;;6129190;23;20206;-90
2022/08/10 16:09:35;;;;;;;7.40;2.10;;;;;;;;;;6129886;23;20157;-89
2022/08/10 16:12:43;;;;;;;5.35;2.33;;;;;;;;;;6129720;23;20233;-91
2022/08/10 16:15:53;;;;;;;3.70;1.65;;;;;;;;;;6128649;23;20185;-90
2022/08/10 16:19:02;;;;;;;3.80;1.73;;;;;;;;;;6128835;23;20157;-90
2022/08/10 16:22:10;;;;;;;5.78;1.90;;;;;;;;;;6129853;23;20626;-88
2022/08/10 16:25:19;;;;;;;3.47;1.85;;;;;;;;;;6129338;23;20200;-90
2022/08/10 16:28:31;;;;;;;4.75;1.70;;;;;;;;;;6130023;23;20193;-89
2022/08/10 16:31:38;;;;;;;5.90;1.90;;;;;;;;;;6131404;23;20197;-90
2022/08/10 16:34:44;;;;;;;3.40;1.75;;;;;;;;;;6130896;23;20153;-90
2022/08/10 16:37:57;;;;;;;2.97;1.70;;;;;;;;;;6129405;23;20170;-87
2022/08/10 16:41:04;;;;;;;4.88;2.10;;;;;;;;;;6129464;23;20189;-90
2022/08/10 16:44:11;;;;;;;5.60;1.83;;;;;;;;;;6128846;23;20204;-90
2022/08/10 16:47:17;;;;;;;2.67;1.85;;;;;;;;;;6128689;23;20185;-90
2022/08/10 16:50:24;;;;;;;5.60;2.10;;;;;;;;;;6129687;23;20214;-90
2022/08/10 16:53:34;;;;;;;5.22;1.98;;;;;;;;;;6130415;23;20190;-90
2022/08/10 16:56:41;;;;;;;5.07;1.67;;;;;;;;;;6127535;23;20173;-89
2022/08/10 16:59:48;;;;;;;7.25;2.00;;;;;;;;;;6126369;23;20234;-91
2022/08/10 17:02:56;;;;;;;3.97;2.10;;;;;;;;;;6124844;23;20221;-90
2022/08/10 17:06:03;;;;;;;6.85;1.92;;;;;;;;;;6127594;23;20172;-89
2022/08/10 17:09:20;;;;;;;8.00;1.98;;;;;;;;;;6127701;23;20172;-90
2022/08/10 17:12:27;;;;;;;10.40;2.22;;;;;;;;;;6127099;23;20161;-89
2022/08/10 17:15:34;;;;;;;3.28;1.70;;;;;;;;;;6127611;23;20177;-91
2022/08/10 17:18:40;;;;;;;4.03;1.77;;;;;;;;;;6126373;23;20168;-90
2022/08/10 17:21:49;;;;;;;6.15;2.10;;;;;;;;;;6127664;23;20165;-90
2022/08/10 17:24:58;;;;;;;4.68;1.95;;;;;;;;;;6126486;23;20209;-90
2022/08/10 17:28:04;;;;;;;7.05;2.17;;;;;;;;;;6124830;23;20157;-91
2022/08/10 17:31:11;;;;;;;7.60;2.15;;;;;;;;;;6126188;23;20156;-90
2022/08/10 17:34:18;;;;;;;6.10;2.42;;;;;;;;;;6125675;23;20238;-90
2022/08/10 17:37:25;;;;;;;7.32;2.30;;;;;;;;;;6126578;23;20157;-89
2022/08/10 17:40:35;;;;;;;5.35;2.08;;;;;;;;;;6127164;23;20241;-89
2022/08/10 17:43:41;;;;;;;4.22;2.10;;;;;;;;;;6126333;23;20177;-89
2022/08/10 17:47:05;;;;;;;9.23;2.92;;;;;;;;;;6126291;23;20168;-89
2022/08/10 17:50:12;;;;;;;7.80;2.20;;;;;;;;;;6125554;23;20173;-90
2022/08/10 17:53:19;;;;;;;7.05;2.38;;;;;;;;;;6125266;23;20153;-91
2022/08/10 17:56:50;;;;;;;4.88;2.33;;;;;;;;;;6127001;23;20169;-91
2022/08/10 18:00:01;;;;;;;3.40;2.03;;;;;;;;;;6128072;23;20177;-90
2022/08/10 18:03:13;;;;;;;5.95;3.25;;;;;;;;;;6143621;23;20177;-89
2022/08/10 18:06:20;;;;;;;4.95;1.65;;;;;;;;;;6125708;23;20160;-91
2022/08/10 18:09:27;;;;;;;9.23;2.15;;;;;;;;;;6125935;23;20197;-90
2022/08/10 18:12:34;;;;;;;5.28;2.17;;;;;;;;;;6125064;23;20185;-89
2022/08/10 18:15:43;;;;;;;7.20;2.00;;;;;;;;;;6142939;23;20198;-90
2022/08/10 18:18:54;;;;;;;6.72;2.75;;;;;;;;;;6126640;23;20156;-91
2022/08/10 18:22:03;;;;;;;6.40;2.80;;;;;;;;;;6126742;23;20180;-90
2022/08/10 18:25:09;;;;;;;9.07;4.22;;;;;;;;;;6126053;23;20197;-90
2022/08/10 18:28:16;;;;;;;7.70;2.50;;;;;;;;;;6124714;23;20180;-89
2022/08/10 18:31:24;;;;;;;6.03;2.42;;;;;;;;;;6123514;23;20166;-89
2022/08/10 18:34:31;;;;;;;5.45;3.10;;;;;;;;;;6123027;23;20237;-90
2022/08/10 18:37:37;;;;;;;5.18;2.53;;;;;;;;;;6123628;23;20225;-89
2022/08/10 18:40:45;;;;;;;6.22;2.80;;;;;;;;;;6123167;23;20225;-89
2022/08/10 18:43:54;;;;;;;5.93;2.50;;;;;;;;;;6125825;23;20217;-88
2022/08/10 18:47:03;;;;;;;12.25;2.72;;;;;;;;;;6125019;23;20177;-89
2022/08/10 18:50:12;;;;;;;8.05;2.13;;;;;;;;;;6126603;23;20803;-89
2022/08/10 18:53:23;;;;;;;4.68;2.15;;;;;;;;;;6126747;23;20175;-91
2022/08/10 18:56:37;;;;;;;14.18;2.60;;;;;;;;;;6125189;23;20223;-90
2022/08/10 18:59:51;;;;;;;4.80;2.40;;;;;;;;;;6125839;23;20192;-90
2022/08/10 19:03:11;;;;;;;5.20;2.83;;;;;;;;;;6125943;23;20229;-90
2022/08/10 19:06:23;;;;;;;5.65;2.75;;;;;;;;;;6126137;23;20197;-89
2022/08/10 19:09:34;;;;;;;8.32;2.47;;;;;;;;;;6126044;23;20153;-91
2022/08/10 19:12:45;;;;;;;9.95;3.00;;;;;;;;;;6126192;23;20245;-88
2022/08/10 19:15:53;;;;;;;4.93;2.70;;;;;;;;;;6126132;23;20222;-88
2022/08/10 19:19:09;;;;;;;13.20;3.25;;;;;;;;;;6124626;23;20594;-89
2022/08/10 19:22:17;;;;;;;20.75;3.30;;;;;;;;;;6125989;23;20177;-90
2022/08/10 19:25:25;;;;;;;7.07;2.83;;;;;;;;;;6125770;23;20290;-89
2022/08/10 19:28:34;;;;;;;7.80;2.80;;;;;;;;;;6128115;23;20173;-88
2022/08/10 19:31:44;;;;;;;9.05;3.22;;;;;;;;;;6128386;23;20176;-89
2022/08/10 19:35:02;;;;;;;5.78;2.80;;;;;;;;;;6127380;23;20162;-89
2022/08/10 19:38:12;;;;;;;4.18;2.70;;;;;;;;;;6127743;23;20153;-88
2022/08/10 19:41:21;;;;;;;6.95;2.47;;;;;;;;;;6126767;23;20209;-89
2022/08/10 19:44:31;;;;;;;7.90;2.88;;;;;;;;;;6126191;23;20222;-90
2022/08/10 19:47:42;;;;;;;11.13;3.35;;;;;;;;;;6126435;23;20268;-88
2022/08/10 19:50:54;;;;;;;9.32;3.35;;;;;;;;;;6124453;23;20181;-89
2022/08/10 19:54:03;;;;;;;8.27;2.70;;;;;;;;;;6124623;23;20174;-88
2022/08/10 19:57:13;;;;;;;9.18;3.03;;;;;;;;;;6127136;23;20178;-89
2022/08/10 22:52:27;;;;;;;7.90;3.60;;;;;;;;;;6128144;23;20173;-89
2022/08/10 22:58:58;;;;;;;4.75;3.20;;;;;;;;;;6123629;23;20544;-90
2022/08/10 23:02:06;;;;;;;5.28;3.15;;;;;;;;;;6125616;23;20230;-90
2022/08/10 23:05:13;;;;;;;6.47;3.30;;;;;;;;;;6124926;23;20253;-90
2022/08/10 23:08:20;;;;;;;7.25;3.40;;;;;;;;;;6124293;23;20156;-88
2022/08/10 23:11:27;;;;;;;5.35;3.22;;;;;;;;;;6123955;23;20170;-89
2022/08/10 23:21:05;;;;;;;4.75;3.00;;;;;;;;;;6124139;23;20173;-89
2022/08/10 23:24:11;;;;;;;6.07;3.60;;;;;;;;;;6122740;23;20169;-89
2022/08/10 23:27:18;;;;;;;7.10;3.45;;;;;;;;;;6125479;23;20193;-89
2022/08/10 23:30:32;;;;;;;6.35;3.50;;;;;;;;;;6125726;23;20501;-91
2022/08/10 23:33:37;;;;;;;8.02;3.13;;;;;;;;;;6106929;23;20545;-90
2022/08/10 23:36:43;;;;;;;6.30;3.58;;;;;;;;;;6135695;23;20161;-88
2022/08/10 23:39:51;;;;;;;7.40;3.58;;;;;;;;;;6122934;23;20160;-92
2022/08/10 23:42:59;;;;;;;6.07;3.60;;;;;;;;;;6123866;23;20176;-90
2022/08/10 23:46:08;;;;;;;10.07;4.07;;;;;;;;;;6122303;23;20200;-89
2022/08/10 23:49:13;;;;;;;7.18;3.80;;;;;;;;;;6123668;23;20173;-89
2022/08/10 23:52:21;;;;;;;6.50;3.55;;;;;;;;;;6122930;23;20262;-90
2022/08/10 23:55:30;;;;;;;6.15;3.50;;;;;;;;;;6123790;23;20154;-89
2022/08/10 23:58:37;;;;;;;7.13;3.28;;;;;;;;;;6128898;23;20157;-88
